sensor_id;sensor_type;location;lat;lon;timestamp;P1;durP1;ratioP1;P2;durP2;ratioP2
41952;SDS011;63613;28.200;112.870;2023-02-15T00:01:58;75.70;;;41.15;;
41952;SDS011;63613;28.200;112.870;2023-02-15T00:04:25;77.35;;;43.65;;
41952;SDS011;63613;28.200;112.870;2023-02-15T00:07:12;78.13;;;42.30;;
41952;SDS011;63613;28.200;112.870;2023-02-15T00:09:40;89.10;;;45.05;;
41952;SDS011;63613;28.200;112.870;2023-02-15T00:12:08;76.60;;;42.40;;
41952;SDS011;63613;28.200;112.870;2023-02-15T00:14:55;79.97;;;42.95;;
41952;SDS011;63613;28.200;112.870;2023-02-15T00:17:22;86.63;;;43.90;;
41952;SDS011;63613;28.200;112.870;2023-02-15T00:19:49;79.25;;;43.55;;
41952;SDS011;63613;28.200;112.870;2023-02-15T00:22:19;79.78;;;43.70;;
41952;SDS011;63613;28.200;112.870;2023-02-15T00:24:46;87.93;;;42.80;;
41952;SDS011;63613;28.200;112.870;2023-02-15T00:27:12;77.13;;;43.55;;
41952;SDS011;63613;28.200;112.870;2023-02-15T00:29:39;88.93;;;44.72;;
41952;SDS011;63613;28.200;112.870;2023-02-15T00:32:06;81.82;;;44.33;;
41952;SDS011;63613;28.200;112.870;2023-02-15T00:34:33;81.47;;;44.13;;
41952;SDS011;63613;28.200;112.870;2023-02-15T00:36:59;83.45;;;44.50;;
41952;SDS011;63613;28.200;112.870;2023-02-15T00:39:26;71.22;;;42.63;;
41952;SDS011;63613;28.200;112.870;2023-02-15T00:41:54;78.18;;;43.50;;
41952;SDS011;63613;28.200;112.870;2023-02-15T00:44:21;77.05;;;44.42;;
41952;SDS011;63613;28.200;112.870;2023-02-15T00:46:47;75.45;;;42.35;;
41952;SDS011;63613;28.200;112.870;2023-02-15T00:49:14;75.93;;;41.90;;
41952;SDS011;63613;28.200;112.870;2023-02-15T00:51:41;78.88;;;43.05;;
41952;SDS011;63613;28.200;112.870;2023-02-15T00:54:08;75.65;;;43.13;;
41952;SDS011;63613;28.200;112.870;2023-02-15T00:56:40;76.45;;;41.83;;
41952;SDS011;63613;28.200;112.870;2023-02-15T00:59:10;80.35;;;43.33;;
41952;SDS011;63613;28.200;112.870;2023-02-15T01:01:37;80.68;;;43.95;;
41952;SDS011;63613;28.200;112.870;2023-02-15T01:04:04;75.97;;;44.05;;
41952;SDS011;63613;28.200;112.870;2023-02-15T01:06:31;70.85;;;41.30;;
41952;SDS011;63613;28.200;112.870;2023-02-15T01:08:57;72.53;;;40.78;;
41952;SDS011;63613;28.200;112.870;2023-02-15T01:11:24;75.18;;;42.55;;
41952;SDS011;63613;28.200;112.870;2023-02-15T01:13:52;73.45;;;41.35;;
41952;SDS011;63613;28.200;112.870;2023-02-15T01:16:21;79.63;;;44.63;;
41952;SDS011;63613;28.200;112.870;2023-02-15T01:18:49;76.03;;;44.20;;
41952;SDS011;63613;28.200;112.870;2023-02-15T01:21:17;76.65;;;44.72;;
41952;SDS011;63613;28.200;112.870;2023-02-15T01:23:48;76.72;;;44.20;;
41952;SDS011;63613;28.200;112.870;2023-02-15T01:26:35;82.53;;;45.67;;
41952;SDS011;63613;28.200;112.870;2023-02-15T01:29:02;77.65;;;46.25;;
41952;SDS011;63613;28.200;112.870;2023-02-15T01:31:29;79.35;;;44.80;;
41952;SDS011;63613;28.200;112.870;2023-02-15T01:33:56;75.43;;;45.88;;
41952;SDS011;63613;28.200;112.870;2023-02-15T01:36:22;82.18;;;45.60;;
41952;SDS011;63613;28.200;112.870;2023-02-15T01:38:49;79.43;;;46.47;;
41952;SDS011;63613;28.200;112.870;2023-02-15T01:41:36;81.80;;;48.05;;
41952;SDS011;63613;28.200;112.870;2023-02-15T01:44:03;79.10;;;46.92;;
41952;SDS011;63613;28.200;112.870;2023-02-15T01:47:08;81.75;;;48.53;;
41952;SDS011;63613;28.200;112.870;2023-02-15T01:49:42;80.88;;;46.10;;
41952;SDS011;63613;28.200;112.870;2023-02-15T01:52:12;81.90;;;48.67;;
41952;SDS011;63613;28.200;112.870;2023-02-15T01:54:41;82.93;;;47.55;;
41952;SDS011;63613;28.200;112.870;2023-02-15T01:57:11;80.90;;;48.75;;
41952;SDS011;63613;28.200;112.870;2023-02-15T02:02:14;76.18;;;44.80;;
41952;SDS011;63613;28.200;112.870;2023-02-15T02:04:47;78.85;;;46.72;;
41952;SDS011;63613;28.200;112.870;2023-02-15T02:07:16;79.03;;;47.30;;
41952;SDS011;63613;28.200;112.870;2023-02-15T02:09:46;83.30;;;46.95;;
41952;SDS011;63613;28.200;112.870;2023-02-15T02:12:14;87.18;;;49.60;;
41952;SDS011;63613;28.200;112.870;2023-02-15T02:14:43;80.60;;;47.35;;
41952;SDS011;63613;28.200;112.870;2023-02-15T02:22:49;78.78;;;46.80;;
41952;SDS011;63613;28.200;112.870;2023-02-15T02:25:51;82.68;;;48.10;;
41952;SDS011;63613;28.200;112.870;2023-02-15T02:28:37;78.65;;;45.97;;
41952;SDS011;63613;28.200;112.870;2023-02-15T02:33:51;77.20;;;46.28;;
41952;SDS011;63613;28.200;112.870;2023-02-15T02:42:10;77.13;;;44.33;;
41952;SDS011;63613;28.200;112.870;2023-02-15T02:44:43;74.13;;;44.92;;
41952;SDS011;63613;28.200;112.870;2023-02-15T02:47:16;71.35;;;44.78;;
41952;SDS011;63613;28.200;112.870;2023-02-15T02:49:57;69.90;;;43.45;;
41952;SDS011;63613;28.200;112.870;2023-02-15T02:52:49;70.07;;;43.20;;
41952;SDS011;63613;28.200;112.870;2023-02-15T02:58:13;67.00;;;40.95;;
41952;SDS011;63613;28.200;112.870;2023-02-15T03:01:09;63.83;;;40.42;;
41952;SDS011;63613;28.200;112.870;2023-02-15T03:03:41;65.93;;;41.58;;
41952;SDS011;63613;28.200;112.870;2023-02-15T03:06:34;67.07;;;40.53;;
41952;SDS011;63613;28.200;112.870;2023-02-15T03:09:12;57.77;;;37.03;;
41952;SDS011;63613;28.200;112.870;2023-02-15T03:12:26;59.40;;;37.53;;
41952;SDS011;63613;28.200;112.870;2023-02-15T03:15:39;57.72;;;38.15;;
41952;SDS011;63613;28.200;112.870;2023-02-15T03:17:51;58.58;;;37.67;;
41952;SDS011;63613;28.200;112.870;2023-02-15T03:20:29;54.10;;;36.03;;
41952;SDS011;63613;28.200;112.870;2023-02-15T03:23:03;56.25;;;36.47;;
41952;SDS011;63613;28.200;112.870;2023-02-15T03:25:39;57.63;;;36.95;;
41952;SDS011;63613;28.200;112.870;2023-02-15T03:28:18;56.88;;;36.00;;
41952;SDS011;63613;28.200;112.870;2023-02-15T03:30:49;55.30;;;36.25;;
41952;SDS011;63613;28.200;112.870;2023-02-15T03:33:21;54.78;;;34.90;;
41952;SDS011;63613;28.200;112.870;2023-02-15T03:35:58;52.55;;;32.92;;
41952;SDS011;63613;28.200;112.870;2023-02-15T03:41:31;49.35;;;30.77;;
41952;SDS011;63613;28.200;112.870;2023-02-15T03:44:04;42.38;;;29.65;;
41952;SDS011;63613;28.200;112.870;2023-02-15T03:46:55;42.70;;;29.30;;
41952;SDS011;63613;28.200;112.870;2023-02-15T03:52:08;38.38;;;25.80;;
41952;SDS011;63613;28.200;112.870;2023-02-15T03:54:36;36.70;;;26.98;;
41952;SDS011;63613;28.200;112.870;2023-02-15T03:57:12;39.67;;;24.90;;
41952;SDS011;63613;28.200;112.870;2023-02-15T04:05:40;33.65;;;23.23;;
41952;SDS011;63613;28.200;112.870;2023-02-15T04:08:28;34.58;;;23.80;;
41952;SDS011;63613;28.200;112.870;2023-02-15T04:13:39;35.42;;;23.88;;
41952;SDS011;63613;28.200;112.870;2023-02-15T04:16:46;38.30;;;23.13;;
41952;SDS011;63613;28.200;112.870;2023-02-15T04:19:12;36.95;;;24.52;;
41952;SDS011;63613;28.200;112.870;2023-02-15T04:21:58;37.75;;;23.95;;
41952;SDS011;63613;28.200;112.870;2023-02-15T04:24:43;37.30;;;23.40;;
41952;SDS011;63613;28.200;112.870;2023-02-15T04:27:28;36.08;;;23.00;;
41952;SDS011;63613;28.200;112.870;2023-02-15T04:29:55;40.80;;;22.25;;
41952;SDS011;63613;28.200;112.870;2023-02-15T04:32:27;37.28;;;22.95;;
41952;SDS011;63613;28.200;112.870;2023-02-15T04:34:54;33.88;;;23.05;;
41952;SDS011;63613;28.200;112.870;2023-02-15T04:37:21;34.10;;;22.02;;
41952;SDS011;63613;28.200;112.870;2023-02-15T04:39:48;33.53;;;22.65;;
41952;SDS011;63613;28.200;112.870;2023-02-15T04:42:15;32.50;;;22.08;;
41952;SDS011;63613;28.200;112.870;2023-02-15T04:44:42;38.90;;;23.65;;
41952;SDS011;63613;28.200;112.870;2023-02-15T04:47:10;36.70;;;23.17;;
41952;SDS011;63613;28.200;112.870;2023-02-15T04:49:36;33.58;;;22.55;;
41952;SDS011;63613;28.200;112.870;2023-02-15T04:52:03;29.85;;;20.65;;
41952;SDS011;63613;28.200;112.870;2023-02-15T04:54:32;35.90;;;20.80;;
41952;SDS011;63613;28.200;112.870;2023-02-15T04:56:59;33.00;;;21.83;;
41952;SDS011;63613;28.200;112.870;2023-02-15T04:59:46;31.80;;;21.42;;
41952;SDS011;63613;28.200;112.870;2023-02-15T05:02:13;38.00;;;23.02;;
41952;SDS011;63613;28.200;112.870;2023-02-15T05:04:39;30.90;;;20.10;;
41952;SDS011;63613;28.200;112.870;2023-02-15T05:07:06;32.83;;;22.38;;
41952;SDS011;63613;28.200;112.870;2023-02-15T05:09:33;35.88;;;23.17;;
41952;SDS011;63613;28.200;112.870;2023-02-15T05:12:00;35.58;;;22.38;;
41952;SDS011;63613;28.200;112.870;2023-02-15T05:14:26;34.97;;;22.77;;
41952;SDS011;63613;28.200;112.870;2023-02-15T05:16:53;33.20;;;22.58;;
41952;SDS011;63613;28.200;112.870;2023-02-15T05:19:23;36.92;;;22.48;;
41952;SDS011;63613;28.200;112.870;2023-02-15T05:21:50;37.20;;;22.63;;
41952;SDS011;63613;28.200;112.870;2023-02-15T05:24:17;34.15;;;22.88;;
41952;SDS011;63613;28.200;112.870;2023-02-15T05:27:03;32.90;;;23.02;;
41952;SDS011;63613;28.200;112.870;2023-02-15T05:29:48;33.95;;;21.83;;
41952;SDS011;63613;28.200;112.870;2023-02-15T05:32:15;31.27;;;20.45;;
41952;SDS011;63613;28.200;112.870;2023-02-15T05:34:42;28.63;;;19.67;;
41952;SDS011;63613;28.200;112.870;2023-02-15T05:37:09;29.90;;;21.15;;
41952;SDS011;63613;28.200;112.870;2023-02-15T05:39:55;31.75;;;20.67;;
41952;SDS011;63613;28.200;112.870;2023-02-15T05:42:22;38.13;;;23.80;;
41952;SDS011;63613;28.200;112.870;2023-02-15T05:44:49;39.10;;;27.88;;
41952;SDS011;63613;28.200;112.870;2023-02-15T05:47:36;39.20;;;25.35;;
41952;SDS011;63613;28.200;112.870;2023-02-15T05:50:03;42.92;;;28.80;;
41952;SDS011;63613;28.200;112.870;2023-02-15T05:52:30;46.88;;;32.25;;
41952;SDS011;63613;28.200;112.870;2023-02-15T05:54:57;40.17;;;28.08;;
41952;SDS011;63613;28.200;112.870;2023-02-15T05:57:27;34.70;;;23.38;;
41952;SDS011;63613;28.200;112.870;2023-02-15T05:59:54;42.25;;;26.92;;
41952;SDS011;63613;28.200;112.870;2023-02-15T06:02:21;40.10;;;26.92;;
41952;SDS011;63613;28.200;112.870;2023-02-15T06:04:51;36.63;;;24.58;;
41952;SDS011;63613;28.200;112.870;2023-02-15T06:07:17;42.47;;;27.55;;
41952;SDS011;63613;28.200;112.870;2023-02-15T06:09:44;40.30;;;26.83;;
41952;SDS011;63613;28.200;112.870;2023-02-15T06:12:11;40.72;;;25.58;;
41952;SDS011;63613;28.200;112.870;2023-02-15T06:14:40;42.53;;;26.48;;
41952;SDS011;63613;28.200;112.870;2023-02-15T06:17:29;45.45;;;29.27;;
41952;SDS011;63613;28.200;112.870;2023-02-15T06:19:56;44.70;;;28.75;;
41952;SDS011;63613;28.200;112.870;2023-02-15T06:22:25;36.60;;;25.35;;
41952;SDS011;63613;28.200;112.870;2023-02-15T06:24:52;40.75;;;29.20;;
41952;SDS011;63613;28.200;112.870;2023-02-15T06:27:18;41.17;;;26.85;;
41952;SDS011;63613;28.200;112.870;2023-02-15T06:29:45;43.95;;;28.88;;
41952;SDS011;63613;28.200;112.870;2023-02-15T06:32:12;37.90;;;25.88;;
41952;SDS011;63613;28.200;112.870;2023-02-15T06:34:39;40.20;;;25.13;;
41952;SDS011;63613;28.200;112.870;2023-02-15T06:37:26;38.53;;;26.15;;
41952;SDS011;63613;28.200;112.870;2023-02-15T06:39:53;37.25;;;26.05;;
41952;SDS011;63613;28.200;112.870;2023-02-15T06:42:20;36.00;;;25.15;;
41952;SDS011;63613;28.200;112.870;2023-02-15T06:44:48;32.50;;;21.15;;
41952;SDS011;63613;28.200;112.870;2023-02-15T06:47:14;34.47;;;22.92;;
41952;SDS011;63613;28.200;112.870;2023-02-15T06:49:41;38.65;;;24.85;;
41952;SDS011;63613;28.200;112.870;2023-02-15T06:52:08;38.25;;;25.20;;
41952;SDS011;63613;28.200;112.870;2023-02-15T06:54:35;36.45;;;24.45;;
41952;SDS011;63613;28.200;112.870;2023-02-15T06:57:01;29.98;;;21.10;;
41952;SDS011;63613;28.200;112.870;2023-02-15T06:59:28;31.85;;;22.88;;
41952;SDS011;63613;28.200;112.870;2023-02-15T07:01:55;35.42;;;24.58;;
41952;SDS011;63613;28.200;112.870;2023-02-15T07:04:25;34.55;;;22.65;;
41952;SDS011;63613;28.200;112.870;2023-02-15T07:06:53;32.38;;;22.77;;
41952;SDS011;63613;28.200;112.870;2023-02-15T07:09:22;31.65;;;21.88;;
41952;SDS011;63613;28.200;112.870;2023-02-15T07:11:49;30.65;;;21.92;;
41952;SDS011;63613;28.200;112.870;2023-02-15T07:14:34;33.20;;;22.35;;
41952;SDS011;63613;28.200;112.870;2023-02-15T07:17:00;26.95;;;19.17;;
41952;SDS011;63613;28.200;112.870;2023-02-15T07:19:27;29.13;;;20.73;;
41952;SDS011;63613;28.200;112.870;2023-02-15T07:21:56;30.33;;;21.13;;
41952;SDS011;63613;28.200;112.870;2023-02-15T07:24:23;26.50;;;19.27;;
41952;SDS011;63613;28.200;112.870;2023-02-15T07:26:51;27.10;;;18.83;;
41952;SDS011;63613;28.200;112.870;2023-02-15T07:29:17;28.50;;;19.33;;
41952;SDS011;63613;28.200;112.870;2023-02-15T07:31:44;30.55;;;19.83;;
41952;SDS011;63613;28.200;112.870;2023-02-15T07:34:11;31.45;;;19.98;;
41952;SDS011;63613;28.200;112.870;2023-02-15T07:36:38;27.10;;;18.92;;
41952;SDS011;63613;28.200;112.870;2023-02-15T07:39:05;25.08;;;18.42;;
41952;SDS011;63613;28.200;112.870;2023-02-15T07:41:32;25.92;;;19.85;;
41952;SDS011;63613;28.200;112.870;2023-02-15T07:43:59;25.35;;;17.27;;
41952;SDS011;63613;28.200;112.870;2023-02-15T07:46:26;27.23;;;18.17;;
41952;SDS011;63613;28.200;112.870;2023-02-15T07:48:53;23.00;;;17.02;;
41952;SDS011;63613;28.200;112.870;2023-02-15T07:51:20;22.98;;;17.33;;
41952;SDS011;63613;28.200;112.870;2023-02-15T07:53:47;24.42;;;17.27;;
41952;SDS011;63613;28.200;112.870;2023-02-15T07:56:14;21.65;;;16.17;;
41952;SDS011;63613;28.200;112.870;2023-02-15T07:58:41;25.60;;;19.42;;
41952;SDS011;63613;28.200;112.870;2023-02-15T08:01:17;22.30;;;16.08;;
41952;SDS011;63613;28.200;112.870;2023-02-15T08:03:45;26.10;;;17.88;;
41952;SDS011;63613;28.200;112.870;2023-02-15T08:06:12;22.88;;;16.50;;
41952;SDS011;63613;28.200;112.870;2023-02-15T08:08:40;25.63;;;17.48;;
41952;SDS011;63613;28.200;112.870;2023-02-15T08:11:18;26.17;;;16.55;;
41952;SDS011;63613;28.200;112.870;2023-02-15T08:16:36;41.40;;;27.67;;
41952;SDS011;63613;28.200;112.870;2023-02-15T08:19:17;36.40;;;25.90;;
41952;SDS011;63613;28.200;112.870;2023-02-15T08:22:07;32.72;;;23.13;;
41952;SDS011;63613;28.200;112.870;2023-02-15T08:24:37;32.47;;;23.80;;
41952;SDS011;63613;28.200;112.870;2023-02-15T08:27:05;33.10;;;22.58;;
41952;SDS011;63613;28.200;112.870;2023-02-15T08:29:33;31.80;;;23.05;;
41952;SDS011;63613;28.200;112.870;2023-02-15T08:32:02;31.90;;;22.27;;
41952;SDS011;63613;28.200;112.870;2023-02-15T08:34:32;30.30;;;22.27;;
41952;SDS011;63613;28.200;112.870;2023-02-15T08:37:01;33.38;;;21.88;;
41952;SDS011;63613;28.200;112.870;2023-02-15T08:39:27;32.58;;;23.67;;
41952;SDS011;63613;28.200;112.870;2023-02-15T08:41:54;31.67;;;23.08;;
41952;SDS011;63613;28.200;112.870;2023-02-15T08:44:21;32.15;;;22.20;;
41952;SDS011;63613;28.200;112.870;2023-02-15T08:46:48;29.85;;;20.55;;
41952;SDS011;63613;28.200;112.870;2023-02-15T08:49:16;31.05;;;22.58;;
41952;SDS011;63613;28.200;112.870;2023-02-15T08:51:45;30.65;;;21.75;;
41952;SDS011;63613;28.200;112.870;2023-02-15T08:54:13;28.30;;;20.85;;
41952;SDS011;63613;28.200;112.870;2023-02-15T08:56:43;32.15;;;21.65;;
41952;SDS011;63613;28.200;112.870;2023-02-15T08:59:17;28.83;;;21.23;;
41952;SDS011;63613;28.200;112.870;2023-02-15T09:01:46;28.85;;;21.17;;
41952;SDS011;63613;28.200;112.870;2023-02-15T09:04:14;29.17;;;20.80;;
41952;SDS011;63613;28.200;112.870;2023-02-15T09:06:42;28.50;;;20.75;;
41952;SDS011;63613;28.200;112.870;2023-02-15T09:09:13;30.40;;;20.90;;
41952;SDS011;63613;28.200;112.870;2023-02-15T09:11:43;29.83;;;21.35;;
41952;SDS011;63613;28.200;112.870;2023-02-15T09:14:12;27.58;;;20.65;;
41952;SDS011;63613;28.200;112.870;2023-02-15T09:16:42;29.73;;;20.63;;
41952;SDS011;63613;28.200;112.870;2023-02-15T09:19:14;33.35;;;22.58;;
41952;SDS011;63613;28.200;112.870;2023-02-15T09:21:42;33.38;;;22.30;;
41952;SDS011;63613;28.200;112.870;2023-02-15T09:24:11;39.03;;;24.40;;
41952;SDS011;63613;28.200;112.870;2023-02-15T09:26:42;36.92;;;24.08;;
41952;SDS011;63613;28.200;112.870;2023-02-15T09:29:12;41.88;;;24.85;;
41952;SDS011;63613;28.200;112.870;2023-02-15T09:31:40;41.05;;;24.88;;
41952;SDS011;63613;28.200;112.870;2023-02-15T09:34:09;40.50;;;25.15;;
41952;SDS011;63613;28.200;112.870;2023-02-15T09:36:38;40.55;;;24.45;;
41952;SDS011;63613;28.200;112.870;2023-02-15T09:39:08;37.58;;;24.00;;
41952;SDS011;63613;28.200;112.870;2023-02-15T09:44:27;46.60;;;25.67;;
41952;SDS011;63613;28.200;112.870;2023-02-15T09:50:16;42.55;;;24.10;;
41952;SDS011;63613;28.200;112.870;2023-02-15T09:58:31;37.70;;;22.92;;
41952;SDS011;63613;28.200;112.870;2023-02-15T10:06:32;43.15;;;24.05;;
41952;SDS011;63613;28.200;112.870;2023-02-15T10:12:09;43.40;;;24.58;;
41952;SDS011;63613;28.200;112.870;2023-02-15T10:17:18;42.88;;;25.45;;
41952;SDS011;63613;28.200;112.870;2023-02-15T10:28:17;38.25;;;22.88;;
41952;SDS011;63613;28.200;112.870;2023-02-15T10:31:18;39.78;;;23.92;;
41952;SDS011;63613;28.200;112.870;2023-02-15T10:33:52;41.50;;;23.02;;
41952;SDS011;63613;28.200;112.870;2023-02-15T10:39:22;35.53;;;21.17;;
41952;SDS011;63613;28.200;112.870;2023-02-15T10:44:45;39.08;;;22.45;;
41952;SDS011;63613;28.200;112.870;2023-02-15T10:52:46;34.28;;;21.38;;
41952;SDS011;63613;28.200;112.870;2023-02-15T10:55:46;38.78;;;20.83;;
41952;SDS011;63613;28.200;112.870;2023-02-15T10:58:21;36.33;;;20.98;;
41952;SDS011;63613;28.200;112.870;2023-02-15T11:06:31;34.17;;;20.88;;
41952;SDS011;63613;28.200;112.870;2023-02-15T11:09:04;32.63;;;19.77;;
41952;SDS011;63613;28.200;112.870;2023-02-15T11:11:41;33.13;;;19.35;;
41952;SDS011;63613;28.200;112.870;2023-02-15T11:17:05;34.83;;;19.58;;
41952;SDS011;63613;28.200;112.870;2023-02-15T11:22:42;32.95;;;19.63;;
41952;SDS011;63613;28.200;112.870;2023-02-15T11:25:20;34.45;;;18.90;;
41952;SDS011;63613;28.200;112.870;2023-02-15T11:27:51;31.27;;;18.80;;
41952;SDS011;63613;28.200;112.870;2023-02-15T11:30:24;32.95;;;19.40;;
41952;SDS011;63613;28.200;112.870;2023-02-15T11:32:58;30.52;;;18.55;;
41952;SDS011;63613;28.200;112.870;2023-02-15T11:38:16;31.05;;;18.58;;
41952;SDS011;63613;28.200;112.870;2023-02-15T11:40:49;33.13;;;19.27;;
41952;SDS011;63613;28.200;112.870;2023-02-15T11:46:13;31.85;;;19.23;;
41952;SDS011;63613;28.200;112.870;2023-02-15T11:48:40;30.48;;;17.98;;
41952;SDS011;63613;28.200;112.870;2023-02-15T11:51:30;33.00;;;19.10;;
41952;SDS011;63613;28.200;112.870;2023-02-15T11:53:57;30.15;;;17.58;;
41952;SDS011;63613;28.200;112.870;2023-02-15T11:56:25;31.27;;;19.95;;
41952;SDS011;63613;28.200;112.870;2023-02-15T12:03:50;35.47;;;19.90;;
41952;SDS011;63613;28.200;112.870;2023-02-15T12:09:36;35.55;;;19.45;;
41952;SDS011;63613;28.200;112.870;2023-02-15T12:15:32;36.67;;;19.55;;
41952;SDS011;63613;28.200;112.870;2023-02-15T12:18:01;36.67;;;19.52;;
41952;SDS011;63613;28.200;112.870;2023-02-15T12:20:29;34.60;;;19.45;;
41952;SDS011;63613;28.200;112.870;2023-02-15T12:23:03;29.35;;;18.95;;
41952;SDS011;63613;28.200;112.870;2023-02-15T12:25:56;27.70;;;17.98;;
41952;SDS011;63613;28.200;112.870;2023-02-15T12:28:30;31.50;;;17.52;;
41952;SDS011;63613;28.200;112.870;2023-02-15T12:31:00;29.48;;;18.52;;
41952;SDS011;63613;28.200;112.870;2023-02-15T12:33:36;34.92;;;18.98;;
41952;SDS011;63613;28.200;112.870;2023-02-15T12:36:29;30.48;;;17.52;;
41952;SDS011;63613;28.200;112.870;2023-02-15T12:44:22;35.95;;;18.73;;
41952;SDS011;63613;28.200;112.870;2023-02-15T12:49:23;29.15;;;18.00;;
41952;SDS011;63613;28.200;112.870;2023-02-15T12:51:55;32.42;;;18.17;;
41952;SDS011;63613;28.200;112.870;2023-02-15T12:54:29;28.50;;;17.48;;
41952;SDS011;63613;28.200;112.870;2023-02-15T12:59:59;26.40;;;15.98;;
41952;SDS011;63613;28.200;112.870;2023-02-15T13:11:08;28.50;;;16.63;;
41952;SDS011;63613;28.200;112.870;2023-02-15T13:13:53;28.27;;;17.42;;
41952;SDS011;63613;28.200;112.870;2023-02-15T13:16:40;27.10;;;17.33;;
41952;SDS011;63613;28.200;112.870;2023-02-15T13:22:16;30.40;;;17.13;;
41952;SDS011;63613;28.200;112.870;2023-02-15T13:24:57;24.73;;;16.38;;
41952;SDS011;63613;28.200;112.870;2023-02-15T13:27:30;27.13;;;16.40;;
41952;SDS011;63613;28.200;112.870;2023-02-15T13:30:04;30.80;;;17.42;;
41952;SDS011;63613;28.200;112.870;2023-02-15T13:33:00;27.65;;;18.00;;
41952;SDS011;63613;28.200;112.870;2023-02-15T13:35:35;27.52;;;17.25;;
41952;SDS011;63613;28.200;112.870;2023-02-15T13:41:32;26.58;;;16.17;;
41952;SDS011;63613;28.200;112.870;2023-02-15T13:44:12;27.95;;;16.95;;
41952;SDS011;63613;28.200;112.870;2023-02-15T13:52:27;26.77;;;17.00;;
41952;SDS011;63613;28.200;112.870;2023-02-15T13:57:32;29.08;;;19.20;;
41952;SDS011;63613;28.200;112.870;2023-02-15T14:00:33;27.13;;;17.42;;
41952;SDS011;63613;28.200;112.870;2023-02-15T14:03:09;32.55;;;20.80;;
41952;SDS011;63613;28.200;112.870;2023-02-15T14:06:05;28.65;;;18.23;;
41952;SDS011;63613;28.200;112.870;2023-02-15T14:19:48;31.95;;;19.55;;
41952;SDS011;63613;28.200;112.870;2023-02-15T14:22:41;31.25;;;19.58;;
41952;SDS011;63613;28.200;112.870;2023-02-15T14:30:38;30.40;;;18.52;;
41952;SDS011;63613;28.200;112.870;2023-02-15T14:36:12;32.33;;;20.65;;
41952;SDS011;63613;28.200;112.870;2023-02-15T14:41:42;33.03;;;19.02;;
41952;SDS011;63613;28.200;112.870;2023-02-15T14:44:37;28.95;;;17.60;;
41952;SDS011;63613;28.200;112.870;2023-02-15T14:58:55;31.25;;;18.90;;
41952;SDS011;63613;28.200;112.870;2023-02-15T15:01:31;30.65;;;17.75;;
41952;SDS011;63613;28.200;112.870;2023-02-15T15:04:04;32.00;;;20.13;;
41952;SDS011;63613;28.200;112.870;2023-02-15T15:06:42;28.50;;;17.92;;
41952;SDS011;63613;28.200;112.870;2023-02-15T15:11:45;29.05;;;18.13;;
41952;SDS011;63613;28.200;112.870;2023-02-15T15:17:02;31.10;;;18.92;;
41952;SDS011;63613;28.200;112.870;2023-02-15T15:22:20;34.75;;;21.08;;
41952;SDS011;63613;28.200;112.870;2023-02-15T15:24:52;33.85;;;21.77;;
41952;SDS011;63613;28.200;112.870;2023-02-15T15:44:31;37.40;;;23.73;;
41952;SDS011;63613;28.200;112.870;2023-02-15T15:50:15;39.65;;;24.13;;
41952;SDS011;63613;28.200;112.870;2023-02-15T15:52:53;39.35;;;25.67;;
41952;SDS011;63613;28.200;112.870;2023-02-15T15:55:23;39.25;;;25.05;;
41952;SDS011;63613;28.200;112.870;2023-02-15T15:57:56;39.17;;;24.63;;
41952;SDS011;63613;28.200;112.870;2023-02-15T16:00:47;41.35;;;25.45;;
41952;SDS011;63613;28.200;112.870;2023-02-15T16:03:26;39.90;;;26.05;;
41952;SDS011;63613;28.200;112.870;2023-02-15T16:05:54;38.80;;;25.17;;
41952;SDS011;63613;28.200;112.870;2023-02-15T16:08:26;37.30;;;25.25;;
41952;SDS011;63613;28.200;112.870;2023-02-15T16:11:10;40.88;;;25.20;;
41952;SDS011;63613;28.200;112.870;2023-02-15T16:13:47;44.90;;;27.45;;
41952;SDS011;63613;28.200;112.870;2023-02-15T16:16:20;41.22;;;25.55;;
41952;SDS011;63613;28.200;112.870;2023-02-15T16:18:50;46.97;;;27.00;;
41952;SDS011;63613;28.200;112.870;2023-02-15T16:21:22;43.65;;;27.73;;
41952;SDS011;63613;28.200;112.870;2023-02-15T16:24:13;45.90;;;28.60;;
41952;SDS011;63613;28.200;112.870;2023-02-15T16:29:53;43.67;;;27.45;;
41952;SDS011;63613;28.200;112.870;2023-02-15T16:32:22;46.17;;;27.45;;
41952;SDS011;63613;28.200;112.870;2023-02-15T16:34:57;44.67;;;27.33;;
41952;SDS011;63613;28.200;112.870;2023-02-15T16:37:34;45.15;;;27.95;;
41952;SDS011;63613;28.200;112.870;2023-02-15T16:40:02;43.53;;;27.42;;
41952;SDS011;63613;28.200;112.870;2023-02-15T16:42:29;45.05;;;28.65;;
41952;SDS011;63613;28.200;112.870;2023-02-15T16:47:46;43.72;;;28.65;;
41952;SDS011;63613;28.200;112.870;2023-02-15T16:52:49;47.75;;;28.95;;
41952;SDS011;63613;28.200;112.870;2023-02-15T16:55:25;48.35;;;29.00;;
41952;SDS011;63613;28.200;112.870;2023-02-15T16:57:59;45.15;;;29.38;;
41952;SDS011;63613;28.200;112.870;2023-02-15T17:00:43;44.65;;;28.83;;
41952;SDS011;63613;28.200;112.870;2023-02-15T17:03:21;48.40;;;28.05;;
41952;SDS011;63613;28.200;112.870;2023-02-15T17:05:55;45.10;;;27.77;;
41952;SDS011;63613;28.200;112.870;2023-02-15T17:17:16;45.47;;;29.55;;
41952;SDS011;63613;28.200;112.870;2023-02-15T17:22:01;48.72;;;28.90;;
41952;SDS011;63613;28.200;112.870;2023-02-15T17:27:05;45.30;;;27.35;;
41952;SDS011;63613;28.200;112.870;2023-02-15T17:29:46;42.70;;;27.10;;
41952;SDS011;63613;28.200;112.870;2023-02-15T17:32:25;42.85;;;26.73;;
41952;SDS011;63613;28.200;112.870;2023-02-15T17:34:58;44.42;;;27.63;;
41952;SDS011;63613;28.200;112.870;2023-02-15T17:37:49;47.38;;;28.60;;
41952;SDS011;63613;28.200;112.870;2023-02-15T17:40:27;39.17;;;26.30;;
41952;SDS011;63613;28.200;112.870;2023-02-15T17:42:55;45.22;;;28.88;;
41952;SDS011;63613;28.200;112.870;2023-02-15T17:45:25;46.50;;;28.80;;
41952;SDS011;63613;28.200;112.870;2023-02-15T17:50:25;48.75;;;28.10;;
41952;SDS011;63613;28.200;112.870;2023-02-15T17:52:53;43.92;;;28.63;;
41952;SDS011;63613;28.200;112.870;2023-02-15T17:55:24;45.05;;;29.58;;
41952;SDS011;63613;28.200;112.870;2023-02-15T17:58:00;45.90;;;29.80;;
41952;SDS011;63613;28.200;112.870;2023-02-15T18:00:29;46.08;;;29.23;;
41952;SDS011;63613;28.200;112.870;2023-02-15T18:06:19;45.70;;;28.98;;
41952;SDS011;63613;28.200;112.870;2023-02-15T18:09:04;42.95;;;27.30;;
41952;SDS011;63613;28.200;112.870;2023-02-15T18:11:49;50.10;;;28.83;;
41952;SDS011;63613;28.200;112.870;2023-02-15T18:14:36;44.00;;;27.42;;
41952;SDS011;63613;28.200;112.870;2023-02-15T18:17:02;39.35;;;26.35;;
41952;SDS011;63613;28.200;112.870;2023-02-15T18:19:30;45.15;;;26.42;;
41952;SDS011;63613;28.200;112.870;2023-02-15T18:21:57;41.83;;;26.40;;